Tomah, WI

1:04 PM CDT on April 18, 2015 (GMT -0500)
Water Mill | | Change Station
CLOSE
Current Station
Personal Weather Station
Location: Tomah, WI
Elevation: 950 ft
Nearby Weather Stations
Active Advisory: Fire Weather Warning

Elev 950 ft 44.05 °N, 90.46 °W | Updated 25 seconds ago

Clear
Clear
66.8 °F
Feels Like 66.8 °F
N
5.0
Wind Variable Wind from SE
Gusts 13.0 mph

Today
High -- | Low -- °F
--% Chance of Precip.
Yesterday
High -- | Low -- °F
Precip. -- in
6:14 AM 7:49 PM
Waning Crescent, 0% visible
Pressure 30.11 in
Visibility 10.0 miles
Clouds Clear
Dew Point 34 °F
Humidity 30%
Rainfall 0.00 in
Snow Depth Not available.
UV 0.0 out of 12
Pollen 11.20 out of 12
Air Quality Not available.
Flu Activity Local Activity
METAR KVOK 181758Z AUTO 09016KT 10SM CLR 19/01 A3009 RMK AO2 SLP194 T01940012 10194 20074 57011

More Conditions Fewer Conditions

Pressure 30.11 in
Visibility 10.0 miles
Clouds Clear
Dew Point 34 °F
Humidity 30%
Rainfall 0.00 in
Snow Depth Not available.
UV 0.0 out of 12
Pollen 11.20 out of 12
Air Quality Not available.
Flu Activity Local Activity
METAR KVOK 181758Z AUTO 09016KT 10SM CLR 19/01 A3009 RMK AO2 SLP194 T01940012 10194 20074 57011

More Conditions Fewer Conditions

10-Day Weather Forecast

Almanac

Astronomy

Apr. 18, 2015 Rise Set
Actual Time
Civil Twilight
Nautical Twilight
Astronomical Twilight
Moon
Length of Visible Light
Length of Day
Tomorrow will be .
, % of the Moon is Illuminated

Today's Extremes

State Highs State Lows

Community

WunderPhotos

Upload Photos

1,814,472 photos uploaded!

WunderBlogs® & News

Nearby

Air Quality

  Air Quality AQ Index Pollutant
Not available.

Snow Depth

Station Depth Elevation

Earthquake Activity

City Distance Mag. Time & Date
Minimum magnitude displayed is 2.5.

Coastal Water Temperatures

Place Temperature

Stations

Nearby Weather Stations

Station Location Temp. Windchill Dew Point Humidity Wind Precip. Elev Updated Type
                   
Fire Weather Warning
Statement as of 10:57 AM CDT on April 18, 2015

... Red flag warning remains in effect until 7 PM CDT this evening
for gusty winds and low humidity for portions of central
Wisconsin...

* affected area... in Wisconsin... Jackson... Monroe... Juneau and
Adams counties.

* Timing... 11 am to 7 PM.

* East winds 14 to 18 mph... gusts approaching 25.

* Lowest afternoon humidities near 20 percent.

* Max temperatures near 70.

* Impacts... any fires that develop will likely spread rapidly.
Avoid all outdoor burning today.

Precautionary/preparedness actions...

A red flag warning means that critical fire weather conditions
are either occurring now... or will shortly. A combination of
strong winds... low relative humidity... and warm temperatures will
create explosive fire growth potential.